Time;durP1;ratioP1;P1;durP2;ratioP2;P2;SDS_P1;SDS_P2;PMS_P1;PMS_P2;Temp;Humidity;BMP_temperature;BMP_pressure;BME280_temperature;BME280_humidity;BME280_pressure;Samples;Min_cycle;Max_cycle;Signal;HPM_P1;HPM_P2
2022/11/18 00:02:33;;;;;;;6.10;5.27;;;;;;;7.00;100.00;94801.38;5030569;28;101852;-62
2022/11/18 00:05:00;;;;;;;7.07;5.40;;;;;;;7.00;100.00;94805.84;5013561;28;103009;-62
2022/11/18 00:07:27;;;;;;;6.37;5.20;;;;;;;7.01;100.00;94807.44;5026009;28;105186;-61
2022/11/18 00:09:54;;;;;;;6.80;5.70;;;;;;;7.01;100.00;94808.22;5011325;28;104805;-61
2022/11/18 00:15:17;;;;;;;6.63;5.40;;;;;;;7.01;100.00;94802.94;5010594;28;102781;-61
2022/11/18 00:17:46;;;;;;;6.97;5.57;;;;;;;7.03;100.00;94792.13;5014397;28;102541;-61
2022/11/18 00:20:13;;;;;;;7.33;5.93;;;;;;;7.02;100.00;94796.59;5030274;28;101900;-62
2022/11/18 00:22:40;;;;;;;8.33;6.03;;;;;;;6.98;100.00;94786.84;5030380;28;102271;-61
2022/11/18 00:25:07;;;;;;;6.90;5.97;;;;;;;6.94;100.00;94783.13;5014726;28;105365;-61
2022/11/18 00:27:34;;;;;;;8.27;6.10;;;;;;;6.95;100.00;94772.31;5030360;28;102930;-61
2022/11/18 00:30:01;;;;;;;6.63;5.87;;;;;;;6.98;100.00;94781.56;5029649;28;102826;-62
2022/11/18 00:32:36;;;;;;;6.77;6.03;;;;;;;6.96;100.00;94786.28;5013383;28;102060;-61
2022/11/18 00:35:08;;;;;;;7.43;5.20;;;;;;;6.95;100.00;94792.63;5033802;28;102869;-61
2022/11/18 00:37:35;;;;;;;6.13;5.43;;;;;;;6.92;100.00;94782.63;5014996;28;105514;-62
2022/11/18 00:40:02;;;;;;;6.50;5.90;;;;;;;6.88;100.00;94786.84;5015369;28;101981;-62
2022/11/18 00:42:52;;;;;;;8.53;7.40;;;;;;;6.87;100.00;94772.81;5015037;28;105687;-61
2022/11/18 00:45:20;;;;;;;8.23;6.87;;;;;;;6.88;100.00;94774.41;5032293;28;103130;-62
2022/11/18 00:47:47;;;;;;;7.97;7.17;;;;;;;6.87;100.00;94766.78;5037448;28;101737;-61
2022/11/18 00:50:16;;;;;;;7.33;6.63;;;;;;;6.90;100.00;94767.03;5014169;28;105300;-61
2022/11/18 00:52:55;;;;;;;7.47;6.77;;;;;;;6.90;100.00;94758.28;5049135;27;101848;-61
2022/11/18 00:55:23;;;;;;;7.90;6.67;;;;;;;6.87;100.00;94748.28;5015244;28;105519;-61
2022/11/18 00:57:50;;;;;;;6.67;6.07;;;;;;;6.90;100.00;94742.44;5014601;28;103849;-61
2022/11/18 01:00:18;;;;;;;6.57;5.40;;;;;;;6.90;100.00;94745.09;5033179;28;102039;-61
2022/11/18 01:02:45;;;;;;;6.13;4.77;;;;;;;6.94;100.00;94735.56;5033531;28;102321;-62
2022/11/18 01:05:37;;;;;;;5.60;4.97;;;;;;;6.96;100.00;94728.16;5048039;27;105825;-61
2022/11/18 01:08:06;;;;;;;5.10;4.70;;;;;;;6.97;100.00;94727.09;5033239;28;101807;-62
2022/11/18 01:10:34;;;;;;;4.73;4.33;;;;;;;6.94;100.00;94717.88;5017747;28;105583;-62
2022/11/18 01:13:20;;;;;;;4.80;4.40;;;;;;;6.93;100.00;94710.22;5033246;28;101826;-62
2022/11/18 01:15:49;;;;;;;4.87;4.47;;;;;;;6.90;100.00;94698.34;5018302;28;102469;-61
2022/11/18 01:18:17;;;;;;;4.87;4.33;;;;;;;6.88;100.00;94697.00;5048021;27;105658;-62
2022/11/18 01:20:47;;;;;;;4.30;4.00;;;;;;;6.89;100.00;94691.47;5032980;28;101991;-61
2022/11/18 01:23:23;;;;;;;5.07;4.33;;;;;;;6.91;100.00;94696.47;5014493;28;104330;-61
2022/11/18 01:25:50;;;;;;;5.40;4.30;;;;;;;6.86;100.00;94691.19;5032545;28;103207;-62
2022/11/18 01:28:18;;;;;;;4.73;4.33;;;;;;;6.86;100.00;94699.13;5032821;28;101829;-61
2022/11/18 01:30:46;;;;;;;4.60;4.20;;;;;;;6.87;100.00;94693.56;5014735;28;105631;-62
2022/11/18 01:33:38;;;;;;;5.30;4.10;;;;;;;6.80;100.00;94694.91;5017208;28;105223;-62
2022/11/18 01:36:15;;;;;;;4.57;4.17;;;;;;;6.72;100.00;94682.25;5014844;28;105411;-62
2022/11/18 01:38:42;;;;;;;4.20;3.73;;;;;;;6.82;100.00;94671.66;5032227;27;101870;-61
2022/11/18 01:41:09;;;;;;;4.67;4.03;;;;;;;6.81;100.00;94659.53;5014407;28;102041;-62
2022/11/18 01:43:51;;;;;;;4.70;4.30;;;;;;;6.79;100.00;94656.34;5031405;28;102347;-62
2022/11/18 01:46:18;;;;;;;4.40;4.07;;;;;;;6.75;100.00;94653.44;5032094;28;103096;-62
2022/11/18 01:48:50;;;;;;;5.97;4.03;;;;;;;6.69;100.00;94645.81;5032426;28;101884;-62
2022/11/18 01:51:24;;;;;;;4.67;4.27;;;;;;;6.64;100.00;94632.59;5032758;28;103466;-61
2022/11/18 01:53:58;;;;;;;3.63;3.33;;;;;;;6.66;100.00;94628.66;5032045;28;103091;-62
2022/11/18 01:56:31;;;;;;;3.90;3.60;;;;;;;6.67;100.00;94637.38;5036111;28;101800;-62
2022/11/18 01:59:03;;;;;;;5.17;4.03;;;;;;;6.68;100.00;94646.88;5013562;28;105333;-61
2022/11/18 02:01:36;;;;;;;5.50;3.87;;;;;;;6.68;100.00;94644.22;5032471;28;101853;-62
2022/11/18 02:04:04;;;;;;;5.77;4.10;;;;;;;6.72;100.00;94645.28;5032505;28;102537;-62
2022/11/18 02:06:49;;;;;;;6.50;4.00;;;;;;;6.78;100.00;94654.78;5013582;28;105649;-61
2022/11/18 02:09:17;;;;;;;4.73;4.23;;;;;;;6.78;100.00;94662.69;5013995;28;101833;-61
2022/11/18 02:11:53;;;;;;;4.63;4.23;;;;;;;6.83;100.00;94663.47;5014048;28;105575;-61
2022/11/18 02:14:23;;;;;;;5.33;4.60;;;;;;;6.80;100.00;94676.41;5031826;28;102627;-61
2022/11/18 02:17:04;;;;;;;4.57;4.17;;;;;;;6.77;100.00;94690.94;5047493;27;102093;-62
2022/11/18 02:19:55;;;;;;;4.70;4.20;;;;;;;6.71;100.00;94692.00;5017037;28;105448;-61
2022/11/18 02:22:47;;;;;;;6.23;4.17;;;;;;;6.71;100.00;94685.97;5031809;28;103307;-61
2022/11/18 02:25:28;;;;;;;4.27;3.87;;;;;;;6.75;100.00;94681.72;5010727;28;105180;-61
2022/11/18 02:28:27;;;;;;;4.30;4.00;;;;;;;6.71;100.00;94693.88;5012998;28;103003;-61
2022/11/18 02:31:00;;;;;;;4.20;3.73;;;;;;;6.74;100.00;94688.84;5013719;28;101807;-61
2022/11/18 02:33:38;;;;;;;5.73;4.27;;;;;;;6.83;100.00;94676.66;5013063;28;105373;-61
2022/11/18 02:36:52;;;;;;;5.00;4.47;;;;;;;6.86;100.00;94668.22;4993222;28;105846;-61
2022/11/18 02:39:23;;;;;;;4.60;4.20;;;;;;;6.84;100.00;94664.25;5019820;28;101982;-62
2022/11/18 02:42:25;;;;;;;6.37;4.93;;;;;;;6.86;100.00;94664.78;5016784;28;104976;-62
2022/11/18 02:44:56;;;;;;;4.93;4.37;;;;;;;6.89;100.00;94657.13;5031844;28;102117;-62
2022/11/18 02:47:29;;;;;;;5.33;4.83;;;;;;;6.95;100.00;94655.25;5013239;28;104075;-61
2022/11/18 02:50:00;;;;;;;4.60;4.20;;;;;;;6.94;100.00;94661.59;5031042;28;102577;-61
2022/11/18 02:52:43;;;;;;;4.43;4.03;;;;;;;7.00;100.00;94668.44;5031893;28;101679;-61
2022/11/18 02:55:13;;;;;;;4.80;4.40;;;;;;;6.97;100.00;94674.25;5013088;28;104785;-61
2022/11/18 02:57:42;;;;;;;4.63;4.23;;;;;;;6.97;100.00;94674.25;5030913;28;102760;-61
2022/11/18 03:00:10;;;;;;;4.97;4.57;;;;;;;6.96;100.00;94668.19;5031246;28;101819;-61
2022/11/18 03:03:23;;;;;;;5.17;4.70;;;;;;;7.03;100.00;94662.63;5013450;28;105559;-61
2022/11/18 03:06:32;;;;;;;4.83;4.43;;;;;;;7.04;100.00;94659.69;4992101;28;103147;-61
2022/11/18 03:09:09;;;;;;;4.67;4.27;;;;;;;6.99;100.00;94651.00;4987372;28;105656;-61
2022/11/18 03:11:56;;;;;;;4.67;4.30;;;;;;;6.92;100.00;94647.88;5012704;28;105485;-62
2022/11/18 03:14:32;;;;;;;5.63;4.73;;;;;;;6.84;100.00;94637.84;5031305;28;101838;-61
2022/11/18 03:17:02;;;;;;;4.50;4.10;;;;;;;6.86;100.00;94627.78;5013110;28;103685;-61
2022/11/18 03:19:39;;;;;;;4.77;4.37;;;;;;;6.85;100.00;94634.13;5012197;28;105669;-61
2022/11/18 03:22:18;;;;;;;4.80;4.40;;;;;;;6.83;100.00;94636.28;5013343;28;101885;-62
2022/11/18 03:24:52;;;;;;;5.73;5.07;;;;;;;6.77;100.00;94634.69;5031107;28;102821;-61
2022/11/18 03:27:26;;;;;;;4.67;4.27;;;;;;;6.76;100.00;94630.47;5030553;28;102492;-62
2022/11/18 03:29:58;;;;;;;5.33;4.93;;;;;;;6.79;100.00;94635.22;5034350;28;101858;-61
2022/11/18 03:32:56;;;;;;;5.60;4.80;;;;;;;6.79;100.00;94651.88;5030706;28;102752;-61
2022/11/18 03:35:33;;;;;;;4.90;4.43;;;;;;;6.76;100.00;94643.69;5031157;28;101738;-61
2022/11/18 03:38:07;;;;;;;5.33;4.93;;;;;;;6.84;100.00;94658.97;5030988;28;102447;-61
2022/11/18 03:40:38;;;;;;;5.17;4.67;;;;;;;6.81;100.00;94648.97;5011841;28;105407;-61
2022/11/18 03:43:10;;;;;;;5.00;4.53;;;;;;;6.76;100.00;94662.97;5012645;28;101866;-61
2022/11/18 03:45:40;;;;;;;6.17;4.30;;;;;;;6.75;100.00;94671.13;5030780;28;102565;-62
2022/11/18 03:48:12;;;;;;;6.73;4.90;;;;;;;6.78;100.00;94682.00;5011953;28;105855;-61
2022/11/18 03:50:44;;;;;;;5.13;4.73;;;;;;;6.83;100.00;94679.31;5031011;28;101866;-61
2022/11/18 03:53:30;;;;;;;5.43;4.93;;;;;;;6.76;100.00;94683.31;5015322;28;104513;-61
2022/11/18 03:56:02;;;;;;;5.70;5.20;;;;;;;6.78;100.00;94691.75;5012823;28;102025;-61
2022/11/18 03:58:35;;;;;;;6.00;5.50;;;;;;;6.71;100.00;94691.25;5030614;28;102867;-61
2022/11/18 04:01:06;;;;;;;6.20;5.60;;;;;;;6.78;100.00;94699.69;5030369;28;101817;-61
2022/11/18 04:03:39;;;;;;;6.10;5.50;;;;;;;6.76;100.00;94710.50;5030611;28;101859;-61
2022/11/18 04:06:31;;;;;;;5.70;5.10;;;;;;;6.75;100.00;94716.84;5012355;28;105435;-61
2022/11/18 04:09:04;;;;;;;6.07;5.50;;;;;;;6.69;100.00;94727.69;5011189;28;105719;-61
2022/11/18 04:14:27;;;;;;;6.80;6.00;;;;;;;6.66;100.00;94730.88;5012002;28;105561;-61
2022/11/18 04:16:54;;;;;;;7.20;5.80;;;;;;;6.64;100.00;94733.75;5033319;28;103056;-62
2022/11/18 04:19:22;;;;;;;6.53;5.93;;;;;;;6.65;100.00;94740.63;5030084;28;102745;-62
2022/11/18 04:21:53;;;;;;;6.30;5.70;;;;;;;6.67;100.00;94741.16;5045157;27;105828;-62
2022/11/18 04:24:21;;;;;;;6.53;5.93;;;;;;;6.71;100.00;94744.06;5012356;28;102068;-62
2022/11/18 04:26:48;;;;;;;6.53;5.93;;;;;;;6.71;100.00;94741.44;5030232;28;102275;-62
2022/11/18 04:29:15;;;;;;;6.57;5.97;;;;;;;6.75;100.00;94753.81;5029864;28;102905;-62
2022/11/18 04:31:58;;;;;;;6.53;5.93;;;;;;;6.78;100.00;94755.16;5011765;28;101975;-62
2022/11/18 04:34:25;;;;;;;5.83;5.33;;;;;;;6.78;100.00;94757.78;5046062;27;105682;-62
2022/11/18 04:36:54;;;;;;;6.77;6.07;;;;;;;6.78;100.00;94763.88;5029543;28;101857;-61
2022/11/18 04:39:23;;;;;;;6.40;5.80;;;;;;;6.82;100.00;94769.41;5015331;28;101999;-62
2022/11/18 04:42:03;;;;;;;6.97;6.20;;;;;;;6.75;100.00;94774.97;5029104;28;102523;-62
2022/11/18 04:44:32;;;;;;;7.00;5.90;;;;;;;6.69;100.00;94786.59;5030603;28;101726;-62
2022/11/18 04:47:00;;;;;;;7.37;6.67;;;;;;;6.67;100.00;94796.63;5011548;28;106213;-61
2022/11/18 04:49:28;;;;;;;8.20;7.40;;;;;;;6.70;100.00;94800.59;5011228;28;105670;-61
2022/11/18 04:52:15;;;;;;;8.17;7.37;;;;;;;6.72;100.00;94799.25;5011497;28;101936;-61
2022/11/18 04:54:44;;;;;;;7.60;6.77;;;;;;;6.67;100.00;94806.41;5011590;28;105031;-62
2022/11/18 04:57:11;;;;;;;8.87;8.00;;;;;;;6.67;100.00;94804.56;5010778;28;105393;-62
2022/11/18 04:59:38;;;;;;;8.83;7.97;;;;;;;6.68;100.00;94813.25;5014920;28;101966;-62
2022/11/18 05:08:51;;;;;;;6.43;5.83;;;;;;;6.68;100.00;94803.50;4994540;28;105295;-61
2022/11/18 05:14:03;;;;;;;9.67;6.37;;;;;;;6.65;100.00;94804.00;5011629;28;101884;-61
2022/11/18 05:16:30;;;;;;;7.63;6.10;;;;;;;6.67;100.00;94801.13;5011293;28;104004;-61
2022/11/18 05:18:59;;;;;;;8.27;6.33;;;;;;;6.66;100.00;94796.88;5012578;28;105757;-62
2022/11/18 05:21:25;;;;;;;7.00;6.30;;;;;;;6.69;100.00;94791.06;5033014;28;101844;-62
2022/11/18 05:23:52;;;;;;;7.93;7.13;;;;;;;6.70;100.00;94792.69;5035816;28;102544;-61
2022/11/18 05:26:21;;;;;;;5.10;4.60;;;;;;;6.75;100.00;94790.81;5014886;28;101870;-61
2022/11/18 05:28:48;;;;;;;3.70;3.40;;;;;;;6.80;100.00;94784.72;5014198;28;104636;-62
2022/11/18 05:31:17;;;;;;;4.90;4.30;;;;;;;6.84;100.00;94783.13;4999112;28;105683;-61
2022/11/18 05:34:09;;;;;;;3.63;3.10;;;;;;;6.90;100.00;94776.78;5013873;28;101875;-61
2022/11/18 05:36:43;;;;;;;5.20;4.80;;;;;;;6.96;100.00;94779.16;5014570;28;104343;-61
2022/11/18 05:39:09;;;;;;;2.90;2.20;;;;;;;6.95;100.00;94776.78;5013502;28;105594;-61
2022/11/18 05:44:36;;;;;;;2.20;1.73;;;;;;;6.98;100.00;94776.25;5032786;28;102837;-61
2022/11/18 05:47:03;;;;;;;1.73;1.63;;;;;;;6.98;100.00;94776.25;5035301;28;102627;-61
2022/11/18 05:49:30;;;;;;;1.60;1.50;;;;;;;7.01;100.00;94776.53;5032228;28;102805;-62
2022/11/18 05:52:04;;;;;;;1.60;1.50;;;;;;;7.02;100.00;94769.38;5031894;28;103000;-61
2022/11/18 05:54:31;;;;;;;1.73;1.50;;;;;;;7.00;100.00;94771.50;4994453;28;102281;-62
2022/11/18 05:57:00;;;;;;;2.40;1.70;;;;;;;6.97;100.00;94769.38;5021893;28;102996;-61
2022/11/18 05:59:27;;;;;;;2.30;2.10;;;;;;;6.98;100.00;94760.41;5031815;28;102681;-61
2022/11/18 06:02:07;;;;;;;3.63;3.33;;;;;;;6.99;100.00;94759.34;5032450;28;101825;-62
2022/11/18 06:04:38;;;;;;;3.33;3.00;;;;;;;6.95;100.00;94761.75;5032369;28;102832;-61
2022/11/18 06:07:10;;;;;;;3.60;3.30;;;;;;;6.94;100.00;94762.81;5031988;28;102533;-61
2022/11/18 06:09:42;;;;;;;3.30;3.00;;;;;;;6.92;100.00;94761.47;5017599;28;101792;-61
2022/11/18 06:12:21;;;;;;;2.80;2.27;;;;;;;6.92;100.00;94761.47;5031856;28;104601;-62
2022/11/18 06:14:53;;;;;;;2.07;1.90;;;;;;;6.96;100.00;94754.59;5014193;28;101988;-61
2022/11/18 06:17:25;;;;;;;2.20;2.10;;;;;;;7.02;100.00;94762.25;5013972;28;105711;-61
2022/11/18 06:19:53;;;;;;;2.03;1.93;;;;;;;7.01;100.00;94765.94;5013547;28;105251;-61
2022/11/18 06:22:29;;;;;;;2.17;2.00;;;;;;;7.00;100.00;94774.13;5032125;28;101847;-61
2022/11/18 06:24:56;;;;;;;2.80;2.50;;;;;;;6.94;100.00;94769.91;5013733;28;105672;-61
2022/11/18 06:27:24;;;;;;;3.63;2.33;;;;;;;6.89;100.00;94773.38;5031370;28;103099;-61
2022/11/18 06:29:51;;;;;;;2.00;1.90;;;;;;;6.88;100.00;94776.28;5031086;27;103169;-61
2022/11/18 06:32:18;;;;;;;2.60;2.40;;;;;;;6.88;100.00;94777.03;5034918;28;102828;-61
2022/11/18 06:34:45;;;;;;;2.33;2.00;;;;;;;6.88;100.00;94778.91;5032010;28;101685;-61
2022/11/18 06:37:14;;;;;;;2.43;1.40;;;;;;;6.81;100.00;94775.75;5013422;28;105372;-61
2022/11/18 06:39:41;;;;;;;1.73;1.50;;;;;;;6.81;100.00;94789.75;5012670;28;105626;-61
2022/11/18 06:45:14;;;;;;;2.20;1.97;;;;;;;6.91;100.00;94791.56;5010251;28;105565;-61
2022/11/18 06:47:41;;;;;;;4.57;2.20;;;;;;;6.86;100.00;94784.47;5010571;28;103204;-61
2022/11/18 06:50:09;;;;;;;3.70;3.40;;;;;;;6.82;100.00;94788.69;5015117;28;101794;-61
2022/11/18 06:52:38;;;;;;;2.90;2.70;;;;;;;6.92;100.00;94793.19;5013259;28;105672;-61
2022/11/18 06:55:07;;;;;;;2.50;2.30;;;;;;;6.95;100.00;94800.56;5034498;28;101695;-61
2022/11/18 06:57:37;;;;;;;2.43;1.90;;;;;;;7.00;100.00;94792.63;5014504;28;101891;-61
2022/11/18 07:00:05;;;;;;;3.00;2.70;;;;;;;6.99;100.00;94793.69;5030442;28;104095;-61
2022/11/18 07:02:36;;;;;;;5.23;3.10;;;;;;;7.02;100.00;94804.53;5031283;28;102689;-61
2022/11/18 07:05:10;;;;;;;3.17;2.97;;;;;;;7.02;100.00;94809.81;5031521;28;102980;-61
2022/11/18 07:07:37;;;;;;;2.93;2.73;;;;;;;7.07;100.00;94816.94;5030570;28;105529;-61
2022/11/18 07:10:05;;;;;;;2.67;2.50;;;;;;;7.07;100.00;94817.72;5013312;28;101930;-61
2022/11/18 07:12:43;;;;;;;2.90;2.60;;;;;;;7.07;100.00;94816.94;5031216;28;102395;-61
2022/11/18 07:15:11;;;;;;;2.60;2.40;;;;;;;7.08;100.00;94824.59;5034100;28;102580;-61
2022/11/18 07:17:38;;;;;;;3.83;2.63;;;;;;;7.15;100.00;94827.75;5012943;28;105214;-61
2022/11/18 07:20:05;;;;;;;11.60;6.43;;;;;;;7.16;100.00;94826.72;5030760;28;102491;-61
2022/11/18 07:22:47;;;;;;;10.90;7.83;;;;;;;7.23;100.00;94821.13;5013094;28;101864;-61
2022/11/18 07:25:14;;;;;;;9.83;6.00;;;;;;;7.26;100.00;94834.59;5012784;28;105121;-61
2022/11/18 07:27:41;;;;;;;7.30;4.50;;;;;;;7.30;100.00;94833.03;5012471;28;105225;-61
2022/11/18 07:30:11;;;;;;;8.67;5.00;;;;;;;7.37;100.00;94835.41;5012936;28;101881;-62
2022/11/18 07:32:54;;;;;;;5.13;3.10;;;;;;;7.41;100.00;94829.31;5031325;28;103179;-62
2022/11/18 07:35:24;;;;;;;3.13;2.10;;;;;;;7.48;100.00;94839.59;5012120;28;105813;-62
2022/11/18 07:37:51;;;;;;;5.40;1.90;;;;;;;7.57;100.00;94837.97;5016425;28;101780;-62
2022/11/18 07:40:18;;;;;;;2.20;2.00;;;;;;;7.58;100.00;94840.34;5011975;28;106746;-62
2022/11/18 07:42:50;;;;;;;2.13;1.90;;;;;;;7.58;100.00;94843.00;5027299;27;102124;-63
2022/11/18 07:45:26;;;;;;;1.80;1.70;;;;;;;7.64;100.00;94849.09;5029310;28;102856;-64
2022/11/18 07:47:53;;;;;;;1.40;1.33;;;;;;;7.78;100.00;94856.19;5017545;28;102674;-63
2022/11/18 07:50:20;;;;;;;1.37;1.03;;;;;;;7.97;100.00;94851.09;5001633;28;102482;-63
2022/11/18 07:52:55;;;;;;;1.50;1.40;;;;;;;8.00;100.00;94859.28;5030145;28;102878;-62
2022/11/18 07:55:22;;;;;;;1.00;1.00;;;;;;;8.12;100.00;94856.31;5028966;27;103127;-62
2022/11/18 07:57:49;;;;;;;2.80;1.07;;;;;;;8.17;100.00;94858.91;5010680;28;102720;-62
2022/11/18 08:00:18;;;;;;;1.53;0.90;;;;;;;8.20;100.00;94864.53;5033589;28;102359;-62
2022/11/18 08:03:10;;;;;;;1.00;1.00;;;;;;;8.34;100.00;94864.72;5016579;28;102058;-62
2022/11/18 08:05:50;;;;;;;0.90;0.90;;;;;;;8.47;100.00;94859.59;5010344;28;102416;-62
2022/11/18 08:08:17;;;;;;;1.77;0.80;;;;;;;8.56;100.00;94863.25;5011407;28;105948;-62
2022/11/18 08:10:44;;;;;;;0.80;0.70;;;;;;;8.59;100.00;94865.34;5012436;28;101874;-63
2022/11/18 08:13:37;;;;;;;0.80;0.80;;;;;;;8.69;100.00;94860.00;5028729;28;103004;-63
2022/11/18 08:16:06;;;;;;;0.73;0.60;;;;;;;8.73;100.00;94865.53;5009323;28;102594;-62
2022/11/18 08:18:34;;;;;;;0.50;0.50;;;;;;;8.78;100.00;94854.91;5023331;28;102205;-62
2022/11/18 08:21:03;;;;;;;1.67;1.10;;;;;;;8.81;100.00;94854.34;5029892;28;103015;-63
2022/11/18 08:23:50;;;;;;;0.60;0.60;;;;;;;8.82;100.00;94859.38;5047937;27;105628;-63
2022/11/18 08:26:18;;;;;;;0.60;0.60;;;;;;;8.89;100.00;94861.72;5011946;28;106784;-63
2022/11/18 08:28:45;;;;;;;0.60;0.60;;;;;;;8.90;100.00;94863.28;5028806;28;102605;-62
2022/11/18 08:31:13;;;;;;;0.60;0.60;;;;;;;8.95;100.00;94861.38;5014225;27;102312;-62
2022/11/18 08:37:08;;;;;;;0.87;0.50;;;;;;;9.03;100.00;94871.41;5028772;28;102806;-63
2022/11/18 08:39:35;;;;;;;0.53;0.53;;;;;;;9.04;100.00;94872.19;5029164;28;101882;-62
2022/11/18 08:42:20;;;;;;;0.60;0.60;;;;;;;9.03;100.00;94867.94;5011283;28;103551;-63
2022/11/18 08:44:47;;;;;;;0.70;0.70;;;;;;;9.08;100.00;94862.63;5010691;28;106006;-63
2022/11/18 08:47:14;;;;;;;3.00;1.30;;;;;;;9.13;100.00;94868.69;5032604;28;102144;-62
2022/11/18 08:49:41;;;;;;;1.10;1.00;;;;;;;9.15;100.00;94871.03;5029106;27;102156;-63
2022/11/18 08:52:19;;;;;;;1.37;1.23;;;;;;;9.18;100.00;94871.28;5029657;28;102337;-63
2022/11/18 08:54:46;;;;;;;2.60;1.90;;;;;;;9.20;100.00;94874.44;5030954;28;102867;-62
2022/11/18 08:57:13;;;;;;;1.27;0.70;;;;;;;9.19;100.00;94874.72;5014002;28;105305;-62
2022/11/18 08:59:40;;;;;;;0.50;0.50;;;;;;;9.19;100.00;94874.72;5014785;28;101935;-63
2022/11/18 09:02:14;;;;;;;0.40;0.40;;;;;;;9.18;100.00;94881.09;5032653;28;103198;-62
2022/11/18 09:04:41;;;;;;;0.40;0.40;;;;;;;9.19;100.00;94887.97;5032633;28;102934;-62
2022/11/18 09:07:08;;;;;;;2.20;0.70;;;;;;;9.21;100.00;94886.63;5017929;28;101926;-63
2022/11/18 09:09:36;;;;;;;3.03;2.07;;;;;;;9.22;100.00;94890.88;5013989;28;105554;-63
2022/11/18 09:12:09;;;;;;;3.23;2.93;;;;;;;9.24;100.00;94885.28;5014429;28;101787;-63
2022/11/18 09:14:36;;;;;;;1.67;1.30;;;;;;;9.24;100.00;94887.94;5032981;28;102328;-62
2022/11/18 09:17:02;;;;;;;3.17;2.87;;;;;;;9.27;100.00;94892.69;5031697;28;102719;-61
2022/11/18 09:19:29;;;;;;;1.73;1.63;;;;;;;9.30;100.00;94890.28;5032722;28;101848;-62
2022/11/18 09:22:17;;;;;;;1.43;1.33;;;;;;;9.31;100.00;94891.06;5032508;28;102994;-62
2022/11/18 09:24:46;;;;;;;1.87;1.77;;;;;;;9.32;100.00;94903.28;5013863;28;104380;-62
2022/11/18 09:27:13;;;;;;;1.47;1.37;;;;;;;9.32;100.00;94898.75;5032759;28;102272;-62
2022/11/18 09:29:40;;;;;;;0.50;0.50;;;;;;;9.33;100.00;94902.19;5017200;28;104186;-62
2022/11/18 09:32:14;;;;;;;0.63;0.63;;;;;;;9.33;100.00;94910.94;5014279;28;101987;-62
2022/11/18 09:34:41;;;;;;;1.03;0.60;;;;;;;9.37;100.00;94921.81;5032677;28;102354;-62
2022/11/18 09:37:08;;;;;;;0.80;0.80;;;;;;;9.35;100.00;94905.34;5031775;28;102752;-62
2022/11/18 09:39:37;;;;;;;1.47;1.37;;;;;;;9.32;100.00;94919.97;5032031;28;101888;-62
2022/11/18 09:42:24;;;;;;;0.90;0.90;;;;;;;9.38;100.00;94910.88;5032266;28;103049;-62
2022/11/18 09:45:14;;;;;;;0.80;0.80;;;;;;;9.38;100.00;94918.84;5013126;28;105676;-62
2022/11/18 09:47:41;;;;;;;1.10;1.00;;;;;;;9.41;100.00;94917.50;5029907;28;101945;-62
2022/11/18 09:50:13;;;;;;;0.97;0.97;;;;;;;9.42;100.00;94914.56;5013888;28;105327;-61
2022/11/18 09:52:55;;;;;;;1.13;1.03;;;;;;;9.46;100.00;94917.47;5035096;28;102588;-66
2022/11/18 09:55:25;;;;;;;0.70;0.70;;;;;;;9.49;100.00;94915.03;5027336;28;102430;-63
2022/11/18 09:57:56;;;;;;;0.57;0.50;;;;;;;9.48;100.00;94908.16;5031456;28;102635;-63
2022/11/18 10:00:26;;;;;;;0.57;0.57;;;;;;;9.52;100.00;94925.09;5032142;28;101893;-63
2022/11/18 10:03:38;;;;;;;0.40;0.40;;;;;;;9.52;100.00;94930.41;5032018;28;102495;-62
2022/11/18 10:06:18;;;;;;;0.40;0.40;;;;;;;9.55;100.00;94923.75;5029909;27;102787;-62
2022/11/18 10:08:57;;;;;;;0.80;0.80;;;;;;;9.57;100.00;94933.03;5013630;28;101988;-62
2022/11/18 10:11:27;;;;;;;0.53;0.53;;;;;;;9.62;100.00;94925.03;5013693;28;105830;-62
2022/11/18 10:14:12;;;;;;;1.00;1.00;;;;;;;9.66;100.00;94926.03;5030798;28;102638;-62
2022/11/18 10:16:47;;;;;;;0.70;0.70;;;;;;;9.73;100.00;94925.72;5016717;28;101925;-62
2022/11/18 10:19:25;;;;;;;0.80;0.80;;;;;;;9.82;100.00;94913.41;5031015;28;103038;-62
2022/11/18 10:22:12;;;;;;;0.80;0.80;;;;;;;9.86;100.00;94919.75;5031599;28;101795;-62
2022/11/18 10:24:42;;;;;;;0.60;0.60;;;;;;;9.96;100.00;94916.97;5013436;28;104853;-62
2022/11/18 10:27:12;;;;;;;1.60;0.60;;;;;;;9.88;100.00;94909.63;5030697;28;102690;-62
2022/11/18 10:29:41;;;;;;;1.00;1.00;;;;;;;9.88;100.00;94909.63;5031344;28;101805;-63
2022/11/18 10:32:13;;;;;;;0.97;0.90;;;;;;;9.92;100.00;94910.66;5013347;28;105023;-62
2022/11/18 10:34:48;;;;;;;0.73;0.70;;;;;;;9.93;100.00;94920.22;5030583;28;103096;-61
2022/11/18 10:37:24;;;;;;;1.00;0.97;;;;;;;9.94;100.00;94919.94;5013108;28;101973;-62
2022/11/18 10:39:52;;;;;;;0.87;0.60;;;;;;;10.01;100.00;94911.59;5033461;28;103484;-62
2022/11/18 10:42:41;;;;;;;0.87;0.57;;;;;;;9.98;100.00;94912.19;5031077;28;101917;-62
2022/11/18 10:45:18;;;;;;;0.40;0.40;;;;;;;10.05;100.00;94918.78;5031441;28;102841;-63
2022/11/18 10:47:58;;;;;;;0.50;0.50;;;;;;;10.07;100.00;94916.63;5031005;28;102734;-63
2022/11/18 10:50:31;;;;;;;0.97;0.90;;;;;;;10.01;100.00;94925.69;5012343;28;102043;-63
2022/11/18 10:53:30;;;;;;;0.80;0.80;;;;;;;9.86;100.00;94914.44;5012980;28;105113;-63
2022/11/18 10:55:59;;;;;;;0.60;0.50;;;;;;;9.75;100.00;94918.28;5031014;28;103103;-63
2022/11/18 10:58:29;;;;;;;0.70;0.70;;;;;;;9.76;100.00;94914.53;5030596;28;101849;-63
2022/11/18 11:01:05;;;;;;;0.50;0.50;;;;;;;9.69;100.00;94917.50;5013059;28;103950;-63
2022/11/18 11:03:58;;;;;;;2.33;1.00;;;;;;;9.67;100.00;94911.72;5015428;28;105674;-63
2022/11/18 11:07:14;;;;;;;0.60;0.60;;;;;;;9.66;100.00;94910.09;5012836;28;102417;-63
2022/11/18 11:09:41;;;;;;;0.83;0.70;;;;;;;9.71;100.00;94917.25;5029605;28;103344;-63
2022/11/18 11:12:17;;;;;;;0.50;0.50;;;;;;;9.73;100.00;94925.72;5012730;28;101917;-63
2022/11/18 11:14:51;;;;;;;0.40;0.40;;;;;;;9.69;100.00;94919.38;5012239;28;105144;-63
2022/11/18 11:17:27;;;;;;;1.40;1.07;;;;;;;9.64;100.00;94922.88;5030181;27;102640;-63
2022/11/18 11:20:03;;;;;;;0.80;0.80;;;;;;;9.56;100.00;94925.34;5011861;28;102323;-63
2022/11/18 11:22:41;;;;;;;0.80;0.80;;;;;;;9.53;100.00;94926.69;5012238;28;105886;-63
2022/11/18 11:25:14;;;;;;;0.63;0.63;;;;;;;9.55;100.00;94932.50;5033229;28;102882;-62
2022/11/18 11:27:54;;;;;;;0.80;0.80;;;;;;;9.56;100.00;94920.03;5012295;28;105081;-64
2022/11/18 11:30:22;;;;;;;1.07;0.87;;;;;;;9.64;100.00;94916.75;5030025;28;102024;-63
2022/11/18 11:33:37;;;;;;;0.73;0.73;;;;;;;9.64;100.00;94916.75;5030523;28;101711;-63
2022/11/18 11:36:28;;;;;;;0.50;0.50;;;;;;;9.71;100.00;94923.31;5045809;27;105642;-63
2022/11/18 11:39:05;;;;;;;1.83;1.60;;;;;;;9.65;100.00;94929.75;5029664;28;102823;-63
2022/11/18 11:41:55;;;;;;;0.70;0.70;;;;;;;9.62;100.00;94924.22;5030340;28;101877;-63
2022/11/18 11:44:36;;;;;;;1.20;1.10;;;;;;;9.54;100.00;94932.78;5030302;28;102484;-63
2022/11/18 11:50:05;;;;;;;2.73;1.23;;;;;;;9.56;100.00;94935.94;5033671;28;102000;-63
2022/11/18 11:56:06;;;;;;;0.80;0.80;;;;;;;9.52;100.00;94940.22;5010195;28;102028;-63
2022/11/18 11:58:53;;;;;;;0.50;0.50;;;;;;;9.36;100.00;94938.75;5010281;28;102582;-63
2022/11/18 12:01:27;;;;;;;1.87;1.50;;;;;;;9.39;100.00;94940.88;5023275;28;102764;-62
2022/11/18 12:04:07;;;;;;;0.70;0.70;;;;;;;9.33;100.00;94949.94;5011757;28;102140;-63
2022/11/18 12:06:34;;;;;;;0.80;0.80;;;;;;;9.31;100.00;94944.09;5012000;28;105220;-63
2022/11/18 12:09:08;;;;;;;0.70;0.70;;;;;;;9.31;100.00;94949.41;5011023;28;105493;-63
2022/11/18 12:11:44;;;;;;;2.93;2.70;;;;;;;9.33;100.00;94952.59;5030006;28;101816;-63
2022/11/18 12:14:17;;;;;;;0.80;0.80;;;;;;;9.34;100.00;94946.22;5033073;28;103685;-63
2022/11/18 12:16:53;;;;;;;1.83;1.20;;;;;;;9.33;100.00;94948.06;5030180;28;101803;-63
2022/11/18 12:19:22;;;;;;;1.70;1.60;;;;;;;9.34;100.00;94948.88;5011690;28;105076;-62
2022/11/18 12:22:31;;;;;;;1.60;1.50;;;;;;;9.35;100.00;94956.56;5029354;28;103029;-63
2022/11/18 12:25:18;;;;;;;0.80;0.80;;;;;;;9.34;100.00;94956.81;5011249;28;101910;-63
2022/11/18 12:27:59;;;;;;;0.70;0.70;;;;;;;9.32;100.00;94941.19;5011099;28;105449;-63